WEATHER/FLIGHT PLANNING

Hattiesburg Radar

 

 

 

 

Weather Links

Flight Planning Links

 

METAR

2014/04/21 03:53 KHBG 210353Z AUTO 16003KT 10SM CLR 17/13 A3015 RMK AO2 SLP209 T01670133

TAF

2014/04/20 18:21 TAF KHBG 201720Z 2018/2118 08006KT P6SM SKC FM210100 03004KT P6SM SKC FM210800 18002KT 5SM BR SKC FM211400 18005KT P6SM SCT035 BKN250